sensor_id;sensor_type;location;lat;lon;timestamp;P1;durP1;ratioP1;P2;durP2;ratioP2
52934;SDS011;38802;50.198;19.796;2022-11-15T00:03:19;34.00;;;20.20;;
52934;SDS011;38802;50.198;19.796;2022-11-15T00:06:08;50.20;;;30.70;;
52934;SDS011;38802;50.198;19.796;2022-11-15T00:08:57;55.50;;;33.50;;
52934;SDS011;38802;50.198;19.796;2022-11-15T00:11:45;48.20;;;30.60;;
52934;SDS011;38802;50.198;19.796;2022-11-15T00:14:32;47.50;;;28.60;;
52934;SDS011;38802;50.198;19.796;2022-11-15T00:17:19;40.80;;;27.50;;
52934;SDS011;38802;50.198;19.796;2022-11-15T00:20:06;46.40;;;27.20;;
52934;SDS011;38802;50.198;19.796;2022-11-15T00:22:54;43.20;;;26.80;;
52934;SDS011;38802;50.198;19.796;2022-11-15T00:28:28;43.50;;;26.20;;
52934;SDS011;38802;50.198;19.796;2022-11-15T00:34:01;48.30;;;28.50;;
52934;SDS011;38802;50.198;19.796;2022-11-15T00:36:48;42.10;;;27.30;;
52934;SDS011;38802;50.198;19.796;2022-11-15T00:39:35;48.50;;;27.10;;
52934;SDS011;38802;50.198;19.796;2022-11-15T00:45:08;35.70;;;23.10;;
52934;SDS011;38802;50.198;19.796;2022-11-15T00:47:56;45.80;;;26.20;;
52934;SDS011;38802;50.198;19.796;2022-11-15T00:53:29;38.70;;;25.60;;
52934;SDS011;38802;50.198;19.796;2022-11-15T00:56:16;40.10;;;26.70;;
52934;SDS011;38802;50.198;19.796;2022-11-15T00:59:04;35.80;;;23.50;;
52934;SDS011;38802;50.198;19.796;2022-11-15T01:01:50;37.90;;;23.20;;
52934;SDS011;38802;50.198;19.796;2022-11-15T01:04:38;37.80;;;23.50;;
52934;SDS011;38802;50.198;19.796;2022-11-15T01:07:24;38.70;;;24.40;;
52934;SDS011;38802;50.198;19.796;2022-11-15T01:10:11;30.40;;;20.60;;
52934;SDS011;38802;50.198;19.796;2022-11-15T01:12:58;40.50;;;24.40;;
52934;SDS011;38802;50.198;19.796;2022-11-15T01:15:46;48.50;;;31.50;;
52934;SDS011;38802;50.198;19.796;2022-11-15T01:18:33;44.80;;;31.60;;
52934;SDS011;38802;50.198;19.796;2022-11-15T01:21:20;44.30;;;27.70;;
52934;SDS011;38802;50.198;19.796;2022-11-15T01:24:07;32.20;;;21.10;;
52934;SDS011;38802;50.198;19.796;2022-11-15T01:26:58;33.60;;;22.30;;
52934;SDS011;38802;50.198;19.796;2022-11-15T01:32:32;33.00;;;21.10;;
52934;SDS011;38802;50.198;19.796;2022-11-15T01:35:19;39.60;;;24.90;;
52934;SDS011;38802;50.198;19.796;2022-11-15T01:38:07;40.80;;;25.40;;
52934;SDS011;38802;50.198;19.796;2022-11-15T01:40:54;42.40;;;24.90;;
52934;SDS011;38802;50.198;19.796;2022-11-15T01:43:41;39.50;;;24.00;;
52934;SDS011;38802;50.198;19.796;2022-11-15T01:46:33;38.60;;;23.80;;
52934;SDS011;38802;50.198;19.796;2022-11-15T01:49:21;36.30;;;21.90;;
52934;SDS011;38802;50.198;19.796;2022-11-15T01:52:12;38.40;;;24.00;;
52934;SDS011;38802;50.198;19.796;2022-11-15T01:55:11;36.30;;;23.90;;
52934;SDS011;38802;50.198;19.796;2022-11-15T01:58:05;38.90;;;22.50;;
52934;SDS011;38802;50.198;19.796;2022-11-15T02:00:53;36.20;;;23.80;;
52934;SDS011;38802;50.198;19.796;2022-11-15T02:03:59;33.60;;;23.40;;
52934;SDS011;38802;50.198;19.796;2022-11-15T02:06:51;35.30;;;23.10;;
52934;SDS011;38802;50.198;19.796;2022-11-15T02:09:38;33.30;;;21.50;;
52934;SDS011;38802;50.198;19.796;2022-11-15T02:12:25;32.30;;;21.80;;
52934;SDS011;38802;50.198;19.796;2022-11-15T02:15:12;30.40;;;22.00;;
52934;SDS011;38802;50.198;19.796;2022-11-15T02:33:14;31.70;;;20.00;;
52934;SDS011;38802;50.198;19.796;2022-11-15T02:36:11;32.70;;;20.60;;
52934;SDS011;38802;50.198;19.796;2022-11-15T02:42:35;30.40;;;21.40;;
52934;SDS011;38802;50.198;19.796;2022-11-15T02:45:54;28.10;;;19.70;;
52934;SDS011;38802;50.198;19.796;2022-11-15T02:48:49;32.20;;;21.20;;
52934;SDS011;38802;50.198;19.796;2022-11-15T02:51:37;29.70;;;20.00;;
52934;SDS011;38802;50.198;19.796;2022-11-15T02:54:28;30.50;;;19.90;;
52934;SDS011;38802;50.198;19.796;2022-11-15T02:57:17;26.90;;;18.80;;
52934;SDS011;38802;50.198;19.796;2022-11-15T03:00:09;34.70;;;21.40;;
52934;SDS011;38802;50.198;19.796;2022-11-15T03:12:30;33.00;;;21.30;;
52934;SDS011;38802;50.198;19.796;2022-11-15T03:15:26;34.20;;;20.60;;
52934;SDS011;38802;50.198;19.796;2022-11-15T03:18:23;32.60;;;22.00;;
52934;SDS011;38802;50.198;19.796;2022-11-15T03:21:18;30.20;;;20.40;;
52934;SDS011;38802;50.198;19.796;2022-11-15T03:24:07;29.10;;;20.40;;
52934;SDS011;38802;50.198;19.796;2022-11-15T03:26:55;29.80;;;20.80;;
52934;SDS011;38802;50.198;19.796;2022-11-15T03:29:46;32.30;;;22.20;;
52934;SDS011;38802;50.198;19.796;2022-11-15T03:32:44;31.10;;;21.00;;
52934;SDS011;38802;50.198;19.796;2022-11-15T03:35:37;32.40;;;21.40;;
52934;SDS011;38802;50.198;19.796;2022-11-15T03:38:27;35.00;;;23.40;;
52934;SDS011;38802;50.198;19.796;2022-11-15T03:47:32;31.60;;;21.80;;
52934;SDS011;38802;50.198;19.796;2022-11-15T03:50:24;36.40;;;23.70;;
52934;SDS011;38802;50.198;19.796;2022-11-15T03:53:13;37.00;;;24.10;;
52934;SDS011;38802;50.198;19.796;2022-11-15T03:56:00;36.50;;;22.90;;
52934;SDS011;38802;50.198;19.796;2022-11-15T03:58:47;39.00;;;25.60;;
52934;SDS011;38802;50.198;19.796;2022-11-15T04:01:34;35.60;;;23.80;;
52934;SDS011;38802;50.198;19.796;2022-11-15T04:04:21;36.50;;;22.80;;
52934;SDS011;38802;50.198;19.796;2022-11-15T04:07:07;39.30;;;23.60;;
52934;SDS011;38802;50.198;19.796;2022-11-15T04:09:55;36.80;;;23.70;;
52934;SDS011;38802;50.198;19.796;2022-11-15T04:12:52;30.50;;;21.70;;
52934;SDS011;38802;50.198;19.796;2022-11-15T04:15:39;37.70;;;22.90;;
52934;SDS011;38802;50.198;19.796;2022-11-15T04:18:26;30.70;;;21.30;;
52934;SDS011;38802;50.198;19.796;2022-11-15T04:21:13;37.60;;;22.00;;
52934;SDS011;38802;50.198;19.796;2022-11-15T04:24:19;33.20;;;22.30;;
52934;SDS011;38802;50.198;19.796;2022-11-15T04:27:05;35.80;;;23.30;;
52934;SDS011;38802;50.198;19.796;2022-11-15T04:29:52;32.80;;;23.00;;
52934;SDS011;38802;50.198;19.796;2022-11-15T04:32:39;37.60;;;22.90;;
52934;SDS011;38802;50.198;19.796;2022-11-15T04:35:26;34.40;;;23.50;;
52934;SDS011;38802;50.198;19.796;2022-11-15T04:38:13;30.80;;;22.30;;
52934;SDS011;38802;50.198;19.796;2022-11-15T04:41:00;32.90;;;22.10;;
52934;SDS011;38802;50.198;19.796;2022-11-15T04:43:47;31.60;;;22.10;;
52934;SDS011;38802;50.198;19.796;2022-11-15T04:46:34;30.90;;;19.50;;
52934;SDS011;38802;50.198;19.796;2022-11-15T04:49:21;28.60;;;19.90;;
52934;SDS011;38802;50.198;19.796;2022-11-15T04:52:08;30.70;;;20.80;;
52934;SDS011;38802;50.198;19.796;2022-11-15T04:54:55;29.80;;;20.50;;
52934;SDS011;38802;50.198;19.796;2022-11-15T04:57:42;30.00;;;20.60;;
52934;SDS011;38802;50.198;19.796;2022-11-15T05:00:29;30.40;;;21.10;;
52934;SDS011;38802;50.198;19.796;2022-11-15T05:03:16;27.60;;;20.10;;
52934;SDS011;38802;50.198;19.796;2022-11-15T05:06:22;29.40;;;20.10;;
52934;SDS011;38802;50.198;19.796;2022-11-15T05:09:08;30.10;;;19.90;;
52934;SDS011;38802;50.198;19.796;2022-11-15T05:11:56;29.40;;;20.20;;
52934;SDS011;38802;50.198;19.796;2022-11-15T05:14:42;26.70;;;20.00;;
52934;SDS011;38802;50.198;19.796;2022-11-15T05:17:29;33.40;;;20.20;;
52934;SDS011;38802;50.198;19.796;2022-11-15T05:20:16;30.80;;;20.00;;
52934;SDS011;38802;50.198;19.796;2022-11-15T05:23:03;27.90;;;19.70;;
52934;SDS011;38802;50.198;19.796;2022-11-15T05:25:50;25.80;;;19.90;;
52934;SDS011;38802;50.198;19.796;2022-11-15T05:28:37;32.00;;;18.90;;
52934;SDS011;38802;50.198;19.796;2022-11-15T05:31:24;24.80;;;18.80;;
52934;SDS011;38802;50.198;19.796;2022-11-15T05:34:12;24.50;;;18.30;;
52934;SDS011;38802;50.198;19.796;2022-11-15T05:36:59;28.00;;;18.80;;
52934;SDS011;38802;50.198;19.796;2022-11-15T05:39:46;24.40;;;18.40;;
52934;SDS011;38802;50.198;19.796;2022-11-15T05:42:33;28.00;;;19.00;;
52934;SDS011;38802;50.198;19.796;2022-11-15T05:45:20;30.20;;;18.70;;
52934;SDS011;38802;50.198;19.796;2022-11-15T05:48:12;26.80;;;19.20;;
52934;SDS011;38802;50.198;19.796;2022-11-15T05:51:01;25.90;;;18.80;;
52934;SDS011;38802;50.198;19.796;2022-11-15T05:53:50;25.30;;;19.40;;
52934;SDS011;38802;50.198;19.796;2022-11-15T05:56:38;26.20;;;17.90;;
52934;SDS011;38802;50.198;19.796;2022-11-15T05:59:25;24.80;;;17.60;;
52934;SDS011;38802;50.198;19.796;2022-11-15T06:02:16;21.90;;;16.80;;
52934;SDS011;38802;50.198;19.796;2022-11-15T06:05:03;23.80;;;17.40;;
52934;SDS011;38802;50.198;19.796;2022-11-15T06:07:50;23.80;;;18.60;;
52934;SDS011;38802;50.198;19.796;2022-11-15T06:13:23;25.50;;;15.90;;
52934;SDS011;38802;50.198;19.796;2022-11-15T06:16:11;29.30;;;17.80;;
52934;SDS011;38802;50.198;19.796;2022-11-15T06:18:58;24.70;;;17.20;;
52934;SDS011;38802;50.198;19.796;2022-11-15T06:21:45;22.90;;;17.70;;
52934;SDS011;38802;50.198;19.796;2022-11-15T06:24:32;29.00;;;19.00;;
52934;SDS011;38802;50.198;19.796;2022-11-15T06:27:18;26.40;;;18.70;;
52934;SDS011;38802;50.198;19.796;2022-11-15T06:30:06;27.70;;;19.80;;
52934;SDS011;38802;50.198;19.796;2022-11-15T06:33:03;24.80;;;17.50;;
52934;SDS011;38802;50.198;19.796;2022-11-15T06:35:52;29.40;;;18.40;;
52934;SDS011;38802;50.198;19.796;2022-11-15T06:38:38;26.30;;;18.20;;
52934;SDS011;38802;50.198;19.796;2022-11-15T06:41:25;25.50;;;18.20;;
52934;SDS011;38802;50.198;19.796;2022-11-15T06:44:12;35.10;;;21.60;;
52934;SDS011;38802;50.198;19.796;2022-11-15T06:46:59;32.10;;;20.50;;
52934;SDS011;38802;50.198;19.796;2022-11-15T06:49:46;30.60;;;19.60;;
52934;SDS011;38802;50.198;19.796;2022-11-15T06:52:33;30.70;;;19.80;;
52934;SDS011;38802;50.198;19.796;2022-11-15T06:55:20;31.10;;;20.60;;
52934;SDS011;38802;50.198;19.796;2022-11-15T06:58:07;26.10;;;18.30;;
52934;SDS011;38802;50.198;19.796;2022-11-15T07:00:57;36.00;;;21.00;;
52934;SDS011;38802;50.198;19.796;2022-11-15T07:03:46;34.40;;;21.00;;
52934;SDS011;38802;50.198;19.796;2022-11-15T07:06:33;26.40;;;18.10;;
52934;SDS011;38802;50.198;19.796;2022-11-15T07:09:19;31.80;;;21.60;;
52934;SDS011;38802;50.198;19.796;2022-11-15T07:12:06;29.70;;;20.70;;
52934;SDS011;38802;50.198;19.796;2022-11-15T07:14:53;30.50;;;19.30;;
52934;SDS011;38802;50.198;19.796;2022-11-15T07:17:40;32.40;;;20.80;;
52934;SDS011;38802;50.198;19.796;2022-11-15T07:20:27;32.80;;;19.50;;
52934;SDS011;38802;50.198;19.796;2022-11-15T07:23:14;31.60;;;20.70;;
52934;SDS011;38802;50.198;19.796;2022-11-15T07:26:01;36.70;;;19.60;;
52934;SDS011;38802;50.198;19.796;2022-11-15T07:28:48;33.80;;;21.30;;
52934;SDS011;38802;50.198;19.796;2022-11-15T07:31:34;34.40;;;22.50;;
52934;SDS011;38802;50.198;19.796;2022-11-15T07:34:21;33.20;;;21.80;;
52934;SDS011;38802;50.198;19.796;2022-11-15T07:37:08;35.80;;;22.30;;
52934;SDS011;38802;50.198;19.796;2022-11-15T07:39:55;37.20;;;22.90;;
52934;SDS011;38802;50.198;19.796;2022-11-15T07:42:42;33.80;;;20.50;;
52934;SDS011;38802;50.198;19.796;2022-11-15T07:45:43;33.70;;;20.30;;
52934;SDS011;38802;50.198;19.796;2022-11-15T07:48:31;34.80;;;20.90;;
52934;SDS011;38802;50.198;19.796;2022-11-15T07:51:29;28.50;;;19.10;;
52934;SDS011;38802;50.198;19.796;2022-11-15T07:54:16;29.40;;;19.50;;
52934;SDS011;38802;50.198;19.796;2022-11-15T07:57:03;31.70;;;19.80;;
52934;SDS011;38802;50.198;19.796;2022-11-15T07:59:53;38.20;;;20.70;;
52934;SDS011;38802;50.198;19.796;2022-11-15T08:05:27;32.90;;;18.90;;
52934;SDS011;38802;50.198;19.796;2022-11-15T08:08:14;33.70;;;20.40;;
52934;SDS011;38802;50.198;19.796;2022-11-15T08:11:02;31.50;;;20.30;;
52934;SDS011;38802;50.198;19.796;2022-11-15T08:13:49;32.80;;;21.20;;
52934;SDS011;38802;50.198;19.796;2022-11-15T08:16:36;41.30;;;23.30;;
52934;SDS011;38802;50.198;19.796;2022-11-15T08:19:23;34.00;;;22.00;;
52934;SDS011;38802;50.198;19.796;2022-11-15T08:22:10;30.30;;;21.10;;
52934;SDS011;38802;50.198;19.796;2022-11-15T08:24:57;34.90;;;21.90;;
52934;SDS011;38802;50.198;19.796;2022-11-15T08:27:44;32.90;;;20.90;;
52934;SDS011;38802;50.198;19.796;2022-11-15T08:30:33;33.70;;;20.90;;
52934;SDS011;38802;50.198;19.796;2022-11-15T08:33:23;28.90;;;19.90;;
52934;SDS011;38802;50.198;19.796;2022-11-15T08:36:14;27.70;;;19.50;;
52934;SDS011;38802;50.198;19.796;2022-11-15T08:39:02;26.50;;;18.60;;
52934;SDS011;38802;50.198;19.796;2022-11-15T08:41:49;30.00;;;19.10;;
52934;SDS011;38802;50.198;19.796;2022-11-15T08:44:36;22.00;;;17.30;;
52934;SDS011;38802;50.198;19.796;2022-11-15T08:47:23;20.10;;;16.00;;
52934;SDS011;38802;50.198;19.796;2022-11-15T08:50:11;21.50;;;16.70;;
52934;SDS011;38802;50.198;19.796;2022-11-15T08:53:03;17.70;;;15.00;;
52934;SDS011;38802;50.198;19.796;2022-11-15T08:55:51;18.20;;;14.00;;
52934;SDS011;38802;50.198;19.796;2022-11-15T08:58:38;18.60;;;14.80;;
52934;SDS011;38802;50.198;19.796;2022-11-15T09:01:26;15.80;;;14.20;;
52934;SDS011;38802;50.198;19.796;2022-11-15T09:04:13;15.50;;;13.90;;
52934;SDS011;38802;50.198;19.796;2022-11-15T09:07:00;16.70;;;13.50;;
52934;SDS011;38802;50.198;19.796;2022-11-15T09:09:47;15.10;;;13.60;;
52934;SDS011;38802;50.198;19.796;2022-11-15T09:12:34;14.50;;;12.90;;
52934;SDS011;38802;50.198;19.796;2022-11-15T09:15:21;15.10;;;13.70;;
52934;SDS011;38802;50.198;19.796;2022-11-15T09:18:08;14.80;;;12.30;;
52934;SDS011;38802;50.198;19.796;2022-11-15T09:20:55;13.30;;;11.80;;
52934;SDS011;38802;50.198;19.796;2022-11-15T09:23:44;14.20;;;12.80;;
52934;SDS011;38802;50.198;19.796;2022-11-15T09:26:31;11.20;;;10.10;;
52934;SDS011;38802;50.198;19.796;2022-11-15T09:29:18;11.10;;;10.10;;
52934;SDS011;38802;50.198;19.796;2022-11-15T09:32:05;10.90;;;9.90;;
52934;SDS011;38802;50.198;19.796;2022-11-15T09:34:52;11.70;;;10.60;;
52934;SDS011;38802;50.198;19.796;2022-11-15T09:37:38;11.70;;;10.60;;
52934;SDS011;38802;50.198;19.796;2022-11-15T09:40:25;12.30;;;11.00;;
52934;SDS011;38802;50.198;19.796;2022-11-15T09:49:20;11.40;;;10.40;;
52934;SDS011;38802;50.198;19.796;2022-11-15T09:52:14;11.80;;;10.70;;
52934;SDS011;38802;50.198;19.796;2022-11-15T09:54:51;10.60;;;9.70;;
52934;SDS011;38802;50.198;19.796;2022-11-15T10:00:22;10.70;;;9.70;;
52934;SDS011;38802;50.198;19.796;2022-11-15T10:05:48;11.80;;;10.80;;
52934;SDS011;38802;50.198;19.796;2022-11-15T10:11:01;13.80;;;11.70;;
52934;SDS011;38802;50.198;19.796;2022-11-15T10:13:55;13.90;;;12.20;;
52934;SDS011;38802;50.198;19.796;2022-11-15T10:24:45;17.20;;;13.00;;
52934;SDS011;38802;50.198;19.796;2022-11-15T10:27:17;13.40;;;12.10;;
52934;SDS011;38802;50.198;19.796;2022-11-15T10:29:47;15.80;;;14.10;;
52934;SDS011;38802;50.198;19.796;2022-11-15T10:32:18;15.70;;;13.50;;
52934;SDS011;38802;50.198;19.796;2022-11-15T10:34:49;15.80;;;13.00;;
52934;SDS011;38802;50.198;19.796;2022-11-15T10:37:35;15.30;;;13.70;;
52934;SDS011;38802;50.198;19.796;2022-11-15T10:42:34;19.70;;;14.60;;
52934;SDS011;38802;50.198;19.796;2022-11-15T10:45:08;16.60;;;13.90;;
52934;SDS011;38802;50.198;19.796;2022-11-15T10:47:51;16.90;;;13.60;;
52934;SDS011;38802;50.198;19.796;2022-11-15T10:50:28;16.20;;;14.50;;
52934;SDS011;38802;50.198;19.796;2022-11-15T10:52:58;16.10;;;14.00;;
52934;SDS011;38802;50.198;19.796;2022-11-15T10:55:30;14.80;;;13.20;;
52934;SDS011;38802;50.198;19.796;2022-11-15T10:58:02;18.80;;;14.00;;
52934;SDS011;38802;50.198;19.796;2022-11-15T11:00:34;17.40;;;14.70;;
52934;SDS011;38802;50.198;19.796;2022-11-15T11:06:11;17.60;;;15.80;;
52934;SDS011;38802;50.198;19.796;2022-11-15T11:12:03;16.80;;;14.10;;
52934;SDS011;38802;50.198;19.796;2022-11-15T11:14:34;17.70;;;13.40;;
52934;SDS011;38802;50.198;19.796;2022-11-15T11:20:04;20.40;;;16.50;;
52934;SDS011;38802;50.198;19.796;2022-11-15T11:36:49;16.00;;;14.20;;
52934;SDS011;38802;50.198;19.796;2022-11-15T11:39:35;16.80;;;14.10;;
52934;SDS011;38802;50.198;19.796;2022-11-15T11:45:19;19.20;;;16.30;;
52934;SDS011;38802;50.198;19.796;2022-11-15T11:48:36;19.40;;;14.80;;
52934;SDS011;38802;50.198;19.796;2022-11-15T11:51:14;30.80;;;16.20;;
52934;SDS011;38802;50.198;19.796;2022-11-15T11:54:03;17.40;;;15.30;;
52934;SDS011;38802;50.198;19.796;2022-11-15T11:56:42;23.40;;;16.00;;
52934;SDS011;38802;50.198;19.796;2022-11-15T11:59:18;24.40;;;16.40;;
52934;SDS011;38802;50.198;19.796;2022-11-15T12:02:21;28.70;;;17.80;;
52934;SDS011;38802;50.198;19.796;2022-11-15T12:05:15;28.90;;;17.60;;
52934;SDS011;38802;50.198;19.796;2022-11-15T12:07:50;24.20;;;17.30;;
52934;SDS011;38802;50.198;19.796;2022-11-15T12:10:30;22.30;;;17.70;;
52934;SDS011;38802;50.198;19.796;2022-11-15T12:13:11;28.40;;;18.20;;
52934;SDS011;38802;50.198;19.796;2022-11-15T12:15:50;22.50;;;18.90;;
52934;SDS011;38802;50.198;19.796;2022-11-15T12:18:24;26.60;;;17.60;;
52934;SDS011;38802;50.198;19.796;2022-11-15T12:20:54;27.60;;;17.80;;
52934;SDS011;38802;50.198;19.796;2022-11-15T12:23:52;22.70;;;17.60;;
52934;SDS011;38802;50.198;19.796;2022-11-15T12:26:26;26.30;;;17.40;;
52934;SDS011;38802;50.198;19.796;2022-11-15T12:29:09;22.20;;;16.40;;
52934;SDS011;38802;50.198;19.796;2022-11-15T12:31:48;20.00;;;15.80;;
52934;SDS011;38802;50.198;19.796;2022-11-15T12:36:48;20.80;;;16.30;;
52934;SDS011;38802;50.198;19.796;2022-11-15T12:39:18;28.90;;;17.60;;
52934;SDS011;38802;50.198;19.796;2022-11-15T12:59:49;30.20;;;20.30;;
52934;SDS011;38802;50.198;19.796;2022-11-15T13:02:39;30.90;;;21.10;;
52934;SDS011;38802;50.198;19.796;2022-11-15T13:17:57;39.00;;;21.20;;
52934;SDS011;38802;50.198;19.796;2022-11-15T13:20:29;32.80;;;20.10;;
52934;SDS011;38802;50.198;19.796;2022-11-15T13:33:16;33.20;;;20.60;;
52934;SDS011;38802;50.198;19.796;2022-11-15T13:35:56;26.00;;;19.00;;
52934;SDS011;38802;50.198;19.796;2022-11-15T13:38:28;30.00;;;19.30;;
52934;SDS011;38802;50.198;19.796;2022-11-15T13:41:00;28.70;;;20.00;;
52934;SDS011;38802;50.198;19.796;2022-11-15T13:43:42;32.50;;;20.00;;
52934;SDS011;38802;50.198;19.796;2022-11-15T13:46:12;34.00;;;20.60;;
52934;SDS011;38802;50.198;19.796;2022-11-15T13:48:44;54.30;;;30.80;;
52934;SDS011;38802;50.198;19.796;2022-11-15T13:53:57;52.40;;;27.60;;
52934;SDS011;38802;50.198;19.796;2022-11-15T13:56:30;37.60;;;24.50;;
52934;SDS011;38802;50.198;19.796;2022-11-15T13:59:08;38.80;;;23.30;;
52934;SDS011;38802;50.198;19.796;2022-11-15T14:01:52;47.40;;;27.10;;
52934;SDS011;38802;50.198;19.796;2022-11-15T14:04:22;45.80;;;23.60;;
52934;SDS011;38802;50.198;19.796;2022-11-15T14:06:53;54.10;;;30.30;;
52934;SDS011;38802;50.198;19.796;2022-11-15T14:09:29;52.70;;;30.70;;
52934;SDS011;38802;50.198;19.796;2022-11-15T14:14:54;35.60;;;24.60;;
52934;SDS011;38802;50.198;19.796;2022-11-15T14:19:56;25.90;;;21.00;;
52934;SDS011;38802;50.198;19.796;2022-11-15T14:22:25;28.50;;;19.70;;
52934;SDS011;38802;50.198;19.796;2022-11-15T14:25:17;25.20;;;17.70;;
52934;SDS011;38802;50.198;19.796;2022-11-15T14:30:43;20.70;;;17.30;;
52934;SDS011;38802;50.198;19.796;2022-11-15T14:35:48;22.30;;;17.20;;
52934;SDS011;38802;50.198;19.796;2022-11-15T14:38:16;18.20;;;16.30;;
52934;SDS011;38802;50.198;19.796;2022-11-15T14:40:45;20.60;;;15.60;;
52934;SDS011;38802;50.198;19.796;2022-11-15T14:43:13;21.10;;;16.20;;
52934;SDS011;38802;50.198;19.796;2022-11-15T14:45:41;25.60;;;16.70;;
52934;SDS011;38802;50.198;19.796;2022-11-15T14:48:10;27.60;;;18.60;;
52934;SDS011;38802;50.198;19.796;2022-11-15T14:50:38;27.80;;;19.80;;
52934;SDS011;38802;50.198;19.796;2022-11-15T14:53:06;30.30;;;22.20;;
52934;SDS011;38802;50.198;19.796;2022-11-15T14:55:42;28.90;;;20.60;;
52934;SDS011;38802;50.198;19.796;2022-11-15T14:58:11;27.20;;;20.70;;
52934;SDS011;38802;50.198;19.796;2022-11-15T15:00:40;31.00;;;20.70;;
52934;SDS011;38802;50.198;19.796;2022-11-15T15:03:09;32.20;;;20.80;;
52934;SDS011;38802;50.198;19.796;2022-11-15T15:05:38;32.80;;;20.70;;
52934;SDS011;38802;50.198;19.796;2022-11-15T15:08:10;34.10;;;21.30;;
52934;SDS011;38802;50.198;19.796;2022-11-15T15:10:43;34.80;;;22.40;;
52934;SDS011;38802;50.198;19.796;2022-11-15T15:15:49;65.70;;;32.10;;
52934;SDS011;38802;50.198;19.796;2022-11-15T15:18:19;73.70;;;38.20;;
52934;SDS011;38802;50.198;19.796;2022-11-15T15:20:53;63.30;;;37.00;;
52934;SDS011;38802;50.198;19.796;2022-11-15T15:23:24;75.40;;;39.20;;
52934;SDS011;38802;50.198;19.796;2022-11-15T15:25:57;67.80;;;37.60;;
52934;SDS011;38802;50.198;19.796;2022-11-15T15:28:25;72.30;;;38.60;;
52934;SDS011;38802;50.198;19.796;2022-11-15T15:31:01;75.50;;;40.20;;
52934;SDS011;38802;50.198;19.796;2022-11-15T15:33:30;69.50;;;38.80;;
52934;SDS011;38802;50.198;19.796;2022-11-15T15:35:58;69.80;;;39.20;;
52934;SDS011;38802;50.198;19.796;2022-11-15T15:38:27;76.80;;;41.20;;
52934;SDS011;38802;50.198;19.796;2022-11-15T15:40:55;70.90;;;38.90;;
52934;SDS011;38802;50.198;19.796;2022-11-15T15:43:23;68.40;;;40.50;;
52934;SDS011;38802;50.198;19.796;2022-11-15T15:45:51;81.00;;;42.20;;
52934;SDS011;38802;50.198;19.796;2022-11-15T15:48:19;67.60;;;40.70;;
52934;SDS011;38802;50.198;19.796;2022-11-15T15:50:47;77.00;;;42.10;;
52934;SDS011;38802;50.198;19.796;2022-11-15T15:53:16;74.10;;;41.80;;
52934;SDS011;38802;50.198;19.796;2022-11-15T15:55:45;82.30;;;44.80;;
52934;SDS011;38802;50.198;19.796;2022-11-15T15:58:13;79.00;;;44.10;;
52934;SDS011;38802;50.198;19.796;2022-11-15T16:00:41;76.10;;;42.60;;
52934;SDS011;38802;50.198;19.796;2022-11-15T16:03:09;79.10;;;41.90;;
52934;SDS011;38802;50.198;19.796;2022-11-15T16:05:38;73.00;;;39.50;;
52934;SDS011;38802;50.198;19.796;2022-11-15T16:08:08;69.10;;;39.00;;
52934;SDS011;38802;50.198;19.796;2022-11-15T16:11:14;79.90;;;40.60;;
52934;SDS011;38802;50.198;19.796;2022-11-15T16:13:42;71.80;;;42.00;;
52934;SDS011;38802;50.198;19.796;2022-11-15T16:16:12;74.70;;;40.90;;
52934;SDS011;38802;50.198;19.796;2022-11-15T16:18:42;80.20;;;42.40;;
52934;SDS011;38802;50.198;19.796;2022-11-15T16:21:10;79.00;;;41.30;;
52934;SDS011;38802;50.198;19.796;2022-11-15T16:23:38;73.60;;;40.20;;
52934;SDS011;38802;50.198;19.796;2022-11-15T16:26:13;80.00;;;40.80;;
52934;SDS011;38802;50.198;19.796;2022-11-15T16:28:54;67.40;;;39.20;;
52934;SDS011;38802;50.198;19.796;2022-11-15T16:31:22;74.30;;;40.40;;
52934;SDS011;38802;50.198;19.796;2022-11-15T16:33:50;64.90;;;37.80;;
52934;SDS011;38802;50.198;19.796;2022-11-15T16:36:24;69.30;;;38.10;;
52934;SDS011;38802;50.198;19.796;2022-11-15T16:38:57;65.50;;;39.80;;
52934;SDS011;38802;50.198;19.796;2022-11-15T16:41:26;65.20;;;40.10;;
52934;SDS011;38802;50.198;19.796;2022-11-15T16:43:54;72.40;;;42.10;;
52934;SDS011;38802;50.198;19.796;2022-11-15T16:46:23;96.00;;;54.30;;
52934;SDS011;38802;50.198;19.796;2022-11-15T16:48:53;100.70;;;60.60;;
52934;SDS011;38802;50.198;19.796;2022-11-15T16:51:21;110.40;;;64.40;;
52934;SDS011;38802;50.198;19.796;2022-11-15T16:53:50;117.50;;;64.90;;
52934;SDS011;38802;50.198;19.796;2022-11-15T16:58:57;113.50;;;63.90;;
52934;SDS011;38802;50.198;19.796;2022-11-15T17:01:28;116.30;;;65.10;;
52934;SDS011;38802;50.198;19.796;2022-11-15T17:03:58;118.50;;;65.70;;
52934;SDS011;38802;50.198;19.796;2022-11-15T17:06:26;114.50;;;60.30;;
52934;SDS011;38802;50.198;19.796;2022-11-15T17:08:55;102.20;;;59.40;;
52934;SDS011;38802;50.198;19.796;2022-11-15T17:11:24;97.90;;;56.50;;
52934;SDS011;38802;50.198;19.796;2022-11-15T17:13:56;99.20;;;56.50;;
52934;SDS011;38802;50.198;19.796;2022-11-15T17:16:25;87.70;;;54.40;;
52934;SDS011;38802;50.198;19.796;2022-11-15T17:18:53;82.80;;;51.00;;
52934;SDS011;38802;50.198;19.796;2022-11-15T17:21:21;82.30;;;51.00;;
52934;SDS011;38802;50.198;19.796;2022-11-15T17:23:50;86.90;;;53.70;;
52934;SDS011;38802;50.198;19.796;2022-11-15T17:26:19;91.10;;;50.90;;
52934;SDS011;38802;50.198;19.796;2022-11-15T17:28:58;86.00;;;50.30;;
52934;SDS011;38802;50.198;19.796;2022-11-15T17:31:28;81.60;;;45.90;;
52934;SDS011;38802;50.198;19.796;2022-11-15T17:33:59;72.10;;;44.40;;
52934;SDS011;38802;50.198;19.796;2022-11-15T17:36:28;74.20;;;44.90;;
52934;SDS011;38802;50.198;19.796;2022-11-15T17:38:56;67.80;;;42.40;;
52934;SDS011;38802;50.198;19.796;2022-11-15T17:41:27;71.20;;;43.20;;
52934;SDS011;38802;50.198;19.796;2022-11-15T17:43:56;66.70;;;43.90;;
52934;SDS011;38802;50.198;19.796;2022-11-15T17:46:27;71.50;;;43.80;;
52934;SDS011;38802;50.198;19.796;2022-11-15T17:48:56;79.90;;;48.00;;
52934;SDS011;38802;50.198;19.796;2022-11-15T17:51:24;108.70;;;56.00;;
52934;SDS011;38802;50.198;19.796;2022-11-15T17:53:54;146.00;;;70.90;;
52934;SDS011;38802;50.198;19.796;2022-11-15T17:56:24;155.60;;;73.90;;
52934;SDS011;38802;50.198;19.796;2022-11-15T17:58:54;184.40;;;85.20;;
52934;SDS011;38802;50.198;19.796;2022-11-15T18:03:57;171.60;;;80.80;;
52934;SDS011;38802;50.198;19.796;2022-11-15T18:06:28;186.20;;;81.10;;
52934;SDS011;38802;50.198;19.796;2022-11-15T18:08:58;182.10;;;82.60;;
52934;SDS011;38802;50.198;19.796;2022-11-15T18:11:28;168.70;;;76.40;;
52934;SDS011;38802;50.198;19.796;2022-11-15T18:14:07;162.20;;;75.90;;
52934;SDS011;38802;50.198;19.796;2022-11-15T18:16:39;142.40;;;70.50;;
52934;SDS011;38802;50.198;19.796;2022-11-15T18:19:07;125.50;;;63.40;;
52934;SDS011;38802;50.198;19.796;2022-11-15T18:21:40;130.20;;;64.50;;
52934;SDS011;38802;50.198;19.796;2022-11-15T18:24:33;116.70;;;62.10;;